Urb Condado Moderno, Puerto Rico
Current Conditions -  °F | °C
As of 5:56 PM on Wednesday 22 Oct 2014 (Local Time) from TJSJ Reporting Station
Scattered Clouds Scattered Clouds  
Wind Chill: 84°   Ceiling: Unl
Heat Index: 91°   Visibility: 10mi
Dew Point: 74°   Wind: 9mph
Humidity: 72%   Direction: 70°ENE
Pressure: 29.9"   Gusts: NA
Location:  18.2361°N, 66.0369°W
Report Text: TJSJ 222156Z 07008KT 10SM FEW032 SCT060 29/23 A2990 RMK AO2 SLP123 T02890233
Loading
Personal Weather Stations






























Interactive Weather Map
Tropical Storm Tracking
New forecast layout! Learn more

10-Day Weather Forecast

Advertisements
Track Severe Weather on mobile